createdAt,value
2023-03-06T00:02:21.978Z,41.04
2023-03-06T00:04:49.297Z,41.16
2023-03-06T00:07:16.455Z,41.34
2023-03-06T00:09:43.680Z,41.28
2023-03-06T00:12:11.037Z,41.64
2023-03-06T00:14:39.697Z,42.38
2023-03-06T00:17:06.797Z,42.47
2023-03-06T00:19:33.960Z,42.64
2023-03-06T00:22:01.221Z,42.75
2023-03-06T00:24:28.397Z,42.87
2023-03-06T00:26:55.658Z,43.05
2023-03-06T00:29:22.817Z,43.33
2023-03-06T00:31:51.515Z,42.54
2023-03-06T00:34:18.718Z,43.38
2023-03-06T00:36:45.915Z,43.29
2023-03-06T00:39:13.095Z,44.22
2023-03-06T00:41:40.194Z,44.49
2023-03-06T00:44:07.814Z,42.66
2023-03-06T00:46:35.083Z,43.02
2023-03-06T00:49:03.754Z,43.80
2023-03-06T00:51:30.854Z,43.37
2023-03-06T00:53:57.973Z,44.17
2023-03-06T00:56:25.202Z,43.56
2023-03-06T00:58:52.374Z,43.46
2023-03-06T01:01:19.645Z,43.54
2023-03-06T01:03:47.034Z,43.94
2023-03-06T01:06:15.628Z,43.66
2023-03-06T01:08:42.728Z,43.99
2023-03-06T01:11:09.948Z,43.76
2023-03-06T01:13:37.047Z,43.71
2023-03-06T01:16:09.265Z,44.16
2023-03-06T01:18:36.904Z,44.80
2023-03-06T01:21:05.411Z,44.77
2023-03-06T01:23:34.285Z,44.17
2023-03-06T01:26:01.806Z,44.19
2023-03-06T01:28:29.666Z,43.99
2023-03-06T01:30:57.042Z,44.17
2023-03-06T01:33:24.323Z,44.20
2023-03-06T01:35:51.543Z,44.21
2023-03-06T01:38:19.509Z,44.30
2023-03-06T01:40:48.128Z,44.00
2023-03-06T01:43:27.408Z,44.42
2023-03-06T01:46:28.674Z,44.20
2023-03-06T01:49:01.024Z,44.14
2023-03-06T01:51:33.735Z,44.57
2023-03-06T01:54:05.970Z,44.70
2023-03-06T01:56:35.900Z,45.19
2023-03-06T01:59:04.351Z,44.74
2023-03-06T02:01:33.433Z,44.98
2023-03-06T02:04:02.056Z,45.20
2023-03-06T02:06:29.671Z,45.55
2023-03-06T02:08:57.110Z,45.46
2023-03-06T02:11:25.617Z,45.43
2023-03-06T02:13:55.292Z,45.14
2023-03-06T02:16:27.798Z,45.01
2023-03-06T02:18:56.476Z,44.82
2023-03-06T02:21:27.580Z,45.13
2023-03-06T02:24:13.512Z,44.81
2023-03-06T02:26:44.593Z,44.60
2023-03-06T02:29:12.174Z,44.63
2023-03-06T02:31:39.274Z,44.97
2023-03-06T02:34:28.676Z,44.73
2023-03-06T02:37:02.413Z,45.06
2023-03-06T02:39:34.397Z,44.76
2023-03-06T02:42:02.997Z,44.70
2023-03-06T02:44:31.582Z,44.65
2023-03-06T02:46:58.803Z,44.71
2023-03-06T02:49:26.593Z,47.44
2023-03-06T02:51:53.974Z,45.58
2023-03-06T02:54:21.100Z,44.44
2023-03-06T02:56:48.284Z,44.56
2023-03-06T02:59:16.920Z,44.85
2023-03-06T03:01:44.076Z,45.60
2023-03-06T03:04:11.479Z,44.63
2023-03-06T03:06:38.666Z,47.72
2023-03-06T03:09:05.782Z,46.38
2023-03-06T03:11:33.064Z,48.06
2023-03-06T03:14:00.244Z,48.67
2023-03-06T03:16:28.789Z,47.84
2023-03-06T03:18:55.923Z,48.55
2023-03-06T03:21:23.106Z,42.76
2023-03-06T03:23:50.419Z,43.84
2023-03-06T03:26:20.348Z,44.82
2023-03-06T03:28:47.487Z,46.16
2023-03-06T03:31:15.129Z,42.90
2023-03-06T03:33:43.692Z,44.66
2023-03-06T03:36:10.955Z,45.49
2023-03-06T03:38:38.252Z,42.50
2023-03-06T03:41:06.091Z,43.70
2023-03-06T03:43:33.395Z,42.94
2023-03-06T03:46:00.874Z,45.74
2023-03-06T03:48:28.376Z,43.52
2023-03-06T03:51:04.716Z,42.39
2023-03-06T03:53:31.858Z,44.19
2023-03-06T03:55:58.962Z,43.98
2023-03-06T03:58:26.198Z,44.17
2023-03-06T04:00:53.395Z,43.07
2023-03-06T04:03:20.533Z,43.72
2023-03-06T04:05:48.292Z,43.63
2023-03-06T04:08:16.924Z,42.26
2023-03-06T04:10:44.128Z,43.48
2023-03-06T04:13:11.289Z,42.73
2023-03-06T04:15:38.438Z,42.79
2023-03-06T04:18:05.738Z,43.01
2023-03-06T04:20:32.854Z,41.99
2023-03-06T04:23:00.014Z,42.26
2023-03-06T04:25:28.643Z,44.05
2023-03-06T04:27:56.935Z,42.64
2023-03-06T04:30:24.149Z,41.14
2023-03-06T04:32:51.438Z,42.03
2023-03-06T04:35:18.997Z,43.39
2023-03-06T04:37:46.252Z,43.72
2023-03-06T04:40:19.513Z,43.71
2023-03-06T04:42:48.870Z,42.05
2023-03-06T04:45:16.848Z,45.02
2023-03-06T04:47:44.018Z,43.42
2023-03-06T04:50:13.158Z,42.34
2023-03-06T04:52:40.285Z,43.04
2023-03-06T04:55:09.139Z,42.77
2023-03-06T04:57:36.598Z,43.59
2023-03-06T05:00:09.000Z,42.02
2023-03-06T05:02:36.705Z,41.95
2023-03-06T05:05:05.126Z,41.70
2023-03-06T05:07:32.272Z,43.75
2023-03-06T05:09:59.506Z,42.41
2023-03-06T05:12:26.969Z,44.15
2023-03-06T05:14:54.431Z,43.03
2023-03-06T05:17:23.051Z,43.54
2023-03-06T05:19:50.213Z,43.09
2023-03-06T05:22:17.422Z,42.16
2023-03-06T05:24:44.564Z,43.91
2023-03-06T05:27:11.893Z,42.38
2023-03-06T05:29:39.128Z,42.61
2023-03-06T05:32:06.921Z,42.61
2023-03-06T05:34:35.810Z,43.21
2023-03-06T05:37:03.052Z,43.08
2023-03-06T05:39:30.874Z,42.24
2023-03-06T05:41:57.954Z,41.58
2023-03-06T05:44:25.035Z,43.32
2023-03-06T05:46:52.118Z,41.74
2023-03-06T05:49:19.199Z,42.44
2023-03-06T05:51:47.799Z,43.41
2023-03-06T05:54:15.058Z,42.76
2023-03-06T05:56:42.953Z,42.63
2023-03-06T05:59:10.334Z,42.17
2023-03-06T06:01:37.525Z,42.83
2023-03-06T06:04:04.905Z,42.18
2023-03-06T06:06:32.048Z,43.55
2023-03-06T06:09:00.714Z,43.69
2023-03-06T06:11:27.990Z,41.76
2023-03-06T06:13:55.210Z,42.19
2023-03-06T06:16:22.724Z,42.83
2023-03-06T06:18:49.922Z,41.70
2023-03-06T06:21:17.085Z,42.52
2023-03-06T06:23:44.250Z,42.15
2023-03-06T06:26:12.836Z,41.69
2023-03-06T06:28:39.942Z,42.58
2023-03-06T06:31:11.530Z,42.26
2023-03-06T06:33:38.790Z,43.56
2023-03-06T06:36:14.588Z,41.69
2023-03-06T06:38:41.913Z,42.04
2023-03-06T06:41:36.110Z,44.43
2023-03-06T06:43:59.130Z,42.96
2023-03-06T06:47:09.594Z,43.27
2023-03-06T06:49:15.755Z,42.12
2023-03-06T06:51:42.937Z,42.95
2023-03-06T06:54:11.305Z,42.41
2023-03-06T06:56:39.092Z,42.54
2023-03-06T06:59:16.443Z,42.01
2023-03-06T07:01:45.207Z,42.04
2023-03-06T07:04:13.852Z,42.80
2023-03-06T07:06:41.746Z,45.39
2023-03-06T07:09:09.297Z,45.90
2023-03-06T07:11:38.131Z,43.08
2023-03-06T07:14:05.706Z,41.19
2023-03-06T07:16:34.362Z,37.39
2023-03-06T07:19:01.583Z,38.54
2023-03-06T07:21:28.790Z,37.96
2023-03-06T07:23:56.218Z,37.99
2023-03-06T07:26:23.374Z,38.58
2023-03-06T07:28:52.835Z,39.71
2023-03-06T07:31:22.127Z,40.23
2023-03-06T07:33:51.821Z,40.44
2023-03-06T07:36:19.517Z,41.62
2023-03-06T07:38:46.831Z,41.48
2023-03-06T07:41:14.849Z,42.10
2023-03-06T07:43:43.184Z,41.95
2023-03-06T07:46:11.733Z,41.98
2023-03-06T07:48:39.958Z,40.14
2023-03-06T07:51:13.546Z,42.31
2023-03-06T07:53:40.739Z,41.42
2023-03-06T07:56:09.154Z,41.52
2023-03-06T07:58:37.327Z,41.29
2023-03-06T08:01:06.088Z,43.95
2023-03-06T08:03:34.007Z,40.49
2023-03-06T08:06:12.077Z,40.54
2023-03-06T08:08:41.981Z,39.13
2023-03-06T08:11:12.046Z,38.51
2023-03-06T08:13:39.985Z,38.05
2023-03-06T08:16:08.282Z,37.12
2023-03-06T08:18:36.764Z,36.84
2023-03-06T08:21:06.136Z,36.09
2023-03-06T08:23:35.739Z,36.27
2023-03-06T08:26:05.533Z,33.86
2023-03-06T08:28:33.004Z,34.93
2023-03-06T08:31:09.083Z,36.05
2023-03-06T08:33:37.248Z,37.29
2023-03-06T08:36:05.199Z,37.05
2023-03-06T08:38:32.465Z,38.17
2023-03-06T08:41:01.198Z,37.53
2023-03-06T08:43:28.370Z,37.95
2023-03-06T08:45:57.326Z,37.74
2023-03-06T08:48:25.105Z,37.31
2023-03-06T08:50:52.664Z,37.96
2023-03-06T08:53:22.707Z,37.40
2023-03-06T08:55:55.128Z,37.01
2023-03-06T08:58:23.723Z,37.14
2023-03-06T09:00:51.056Z,36.38
2023-03-06T09:03:18.571Z,37.33
2023-03-06T09:05:45.833Z,38.05
2023-03-06T09:08:13.071Z,36.68
2023-03-06T09:10:40.333Z,34.96
2023-03-06T09:13:07.669Z,35.79
2023-03-06T09:15:36.608Z,34.95
2023-03-06T09:18:03.985Z,36.08
2023-03-06T09:20:31.291Z,35.17
2023-03-06T09:22:58.809Z,34.50
2023-03-06T09:25:25.962Z,35.13
2023-03-06T09:28:08.676Z,35.03
2023-03-06T09:30:40.527Z,35.13
2023-03-06T09:33:07.880Z,34.47
2023-03-06T09:35:35.224Z,35.08
2023-03-06T09:38:02.449Z,35.11
2023-03-06T09:40:47.134Z,33.12
2023-03-06T09:43:26.027Z,34.61
2023-03-06T09:45:55.000Z,34.48
2023-03-06T09:48:35.757Z,33.36
2023-03-06T09:51:12.606Z,32.91
2023-03-06T09:53:56.676Z,33.61
2023-03-06T09:56:27.816Z,32.64
2023-03-06T09:59:07.793Z,33.89
2023-03-06T10:01:42.312Z,32.68
2023-03-06T10:04:28.923Z,32.22
2023-03-06T10:07:01.514Z,32.32
2023-03-06T10:09:45.192Z,31.21
2023-03-06T10:12:24.953Z,31.50
2023-03-06T10:15:14.086Z,31.99
2023-03-06T10:17:44.532Z,30.87
2023-03-06T10:20:20.783Z,32.04
2023-03-06T10:23:13.825Z,29.10
2023-03-06T10:25:50.923Z,31.50
2023-03-06T10:28:23.501Z,31.74
2023-03-06T10:31:01.561Z,31.93
2023-03-06T10:33:49.469Z,30.61
2023-03-06T10:36:19.541Z,30.50
2023-03-06T10:38:48.031Z,30.47
2023-03-06T10:41:25.877Z,30.07
2023-03-06T10:44:19.386Z,32.15
2023-03-06T10:46:49.915Z,29.75
2023-03-06T10:49:32.612Z,30.33
2023-03-06T10:52:03.402Z,31.68
2023-03-06T10:54:33.773Z,31.60
2023-03-06T10:57:19.814Z,30.73
2023-03-06T10:59:53.013Z,29.80
2023-03-06T11:02:27.558Z,29.96
2023-03-06T11:04:59.272Z,29.39
2023-03-06T11:07:28.529Z,29.81
2023-03-06T11:10:16.474Z,29.85
2023-03-06T11:12:55.771Z,30.19
2023-03-06T11:15:24.546Z,29.97
2023-03-06T11:17:55.891Z,32.29
2023-03-06T11:20:27.807Z,30.98
2023-03-06T11:23:07.414Z,30.68
2023-03-06T11:25:40.988Z,30.32
2023-03-06T11:28:18.448Z,30.82
2023-03-06T11:30:49.907Z,28.06
2023-03-06T11:33:27.529Z,28.56
2023-03-06T11:36:04.592Z,29.70
2023-03-06T11:38:40.448Z,29.39
2023-03-06T11:41:19.140Z,27.92
2023-03-06T11:43:57.025Z,28.56
2023-03-06T11:46:29.257Z,28.62
2023-03-06T11:49:05.086Z,27.33
2023-03-06T11:51:41.578Z,30.20
2023-03-06T11:54:13.166Z,27.84
2023-03-06T11:56:52.845Z,28.15
2023-03-06T11:59:42.492Z,28.71
2023-03-06T12:02:29.428Z,29.01
2023-03-06T12:05:28.405Z,29.58
2023-03-06T12:08:14.770Z,28.07
2023-03-06T12:10:51.830Z,30.20
2023-03-06T12:16:46.238Z,27.98
2023-03-06T12:19:32.449Z,29.27
2023-03-06T12:22:20.774Z,30.53
2023-03-06T12:25:23.709Z,28.36
2023-03-06T12:28:06.938Z,28.39
2023-03-06T12:31:01.027Z,28.07
2023-03-06T12:33:36.089Z,28.53
2023-03-06T12:36:21.719Z,31.04
2023-03-06T12:39:03.591Z,33.50
2023-03-06T12:41:50.637Z,28.89
2023-03-06T12:44:42.929Z,30.71
2023-03-06T12:47:12.909Z,29.34
2023-03-06T12:49:46.874Z,28.68
2023-03-06T12:52:30.348Z,28.07
2023-03-06T12:55:01.609Z,28.03
2023-03-06T12:57:30.477Z,28.72
2023-03-06T12:59:59.290Z,29.40
2023-03-06T13:02:55.256Z,27.02
2023-03-06T13:06:09.454Z,28.99
2023-03-06T13:09:08.937Z,27.38
2023-03-06T13:12:11.063Z,29.34
2023-03-06T13:14:56.654Z,27.67
2023-03-06T13:17:43.094Z,27.49
2023-03-06T13:20:35.017Z,27.55
2023-03-06T13:23:39.476Z,28.67
2023-03-06T13:26:30.517Z,28.99
2023-03-06T13:28:58.515Z,28.09
2023-03-06T13:31:28.350Z,27.14
2023-03-06T13:34:00.215Z,27.80
2023-03-06T13:36:30.667Z,27.69
2023-03-06T13:39:01.388Z,27.39
2023-03-06T13:41:54.250Z,27.50
2023-03-06T13:44:45.382Z,27.07
2023-03-06T13:48:09.684Z,28.21
2023-03-06T13:50:38.830Z,27.77
2023-03-06T13:53:35.897Z,27.82
2023-03-06T13:56:25.721Z,27.98
2023-03-06T13:59:19.239Z,27.27
2023-03-06T14:02:01.001Z,32.95
2023-03-06T14:04:46.135Z,26.46
2023-03-06T14:07:27.674Z,25.39
2023-03-06T14:10:09.401Z,26.04
2023-03-06T14:12:41.056Z,25.95
2023-03-06T14:15:20.201Z,25.97
2023-03-06T14:17:56.554Z,25.50
2023-03-06T14:20:33.689Z,25.72
2023-03-06T14:23:27.244Z,25.12
2023-03-06T14:26:11.906Z,25.62
2023-03-06T14:28:39.114Z,25.88
2023-03-06T14:31:07.548Z,25.47
2023-03-06T14:33:43.813Z,25.75
2023-03-06T14:36:15.035Z,26.14
2023-03-06T14:38:49.676Z,25.62
2023-03-06T14:41:24.874Z,25.31
2023-03-06T14:43:52.515Z,25.65
2023-03-06T14:46:21.882Z,26.15
2023-03-06T14:48:49.995Z,25.80
2023-03-06T14:51:21.071Z,26.49
2023-03-06T14:53:52.917Z,26.29
2023-03-06T14:56:23.536Z,25.65
2023-03-06T14:58:56.259Z,26.12
2023-03-06T15:01:30.352Z,25.92
2023-03-06T15:04:00.786Z,25.75
2023-03-06T15:06:34.674Z,25.92
2023-03-06T15:09:09.615Z,26.19
2023-03-06T15:11:55.258Z,25.57
2023-03-06T15:14:31.880Z,25.51
2023-03-06T15:17:23.890Z,25.51
2023-03-06T15:19:52.922Z,25.63
2023-03-06T15:22:28.796Z,25.49
2023-03-06T15:25:19.515Z,25.66
2023-03-06T15:27:50.969Z,25.99
2023-03-06T15:30:28.469Z,25.75
2023-03-06T15:33:24.329Z,26.40
2023-03-06T15:35:56.307Z,26.59
2023-03-06T15:38:30.308Z,26.35
2023-03-06T15:41:01.838Z,26.42
2023-03-06T15:43:37.304Z,26.17
2023-03-06T15:46:14.019Z,26.33
2023-03-06T15:48:52.761Z,26.76
2023-03-06T15:51:21.693Z,26.13
2023-03-06T15:53:50.207Z,25.53
2023-03-06T15:56:25.057Z,26.07
2023-03-06T15:58:52.416Z,25.47
2023-03-06T16:01:19.863Z,25.39
2023-03-06T16:03:48.116Z,25.46
2023-03-06T16:06:17.758Z,25.70
2023-03-06T16:08:45.358Z,25.70
2023-03-06T16:11:26.007Z,25.61
2023-03-06T16:13:58.218Z,25.28
2023-03-06T16:16:32.602Z,25.32
2023-03-06T16:19:00.420Z,25.22
2023-03-06T16:21:29.698Z,25.05
2023-03-06T16:24:02.401Z,25.31
2023-03-06T16:26:39.046Z,25.06
2023-03-06T16:29:07.392Z,25.39
2023-03-06T16:31:34.933Z,25.56
2023-03-06T16:34:04.576Z,25.68
2023-03-06T16:36:32.190Z,25.69
2023-03-06T16:39:00.514Z,25.90
2023-03-06T16:41:29.531Z,25.85
2023-03-06T16:43:59.492Z,25.05
2023-03-06T16:46:26.733Z,25.50
2023-03-06T16:48:53.935Z,25.63
2023-03-06T16:51:22.867Z,25.25
2023-03-06T16:54:13.489Z,24.87
2023-03-06T16:57:21.834Z,25.64
2023-03-06T16:59:51.480Z,25.25
2023-03-06T17:02:18.893Z,24.99
2023-03-06T17:04:46.458Z,24.87
2023-03-06T17:07:13.614Z,24.46
2023-03-06T17:09:40.777Z,25.30
2023-03-06T17:12:08.814Z,25.00
2023-03-06T17:14:36.074Z,25.06
2023-03-06T17:17:04.807Z,25.04
2023-03-06T17:19:31.962Z,25.33
2023-03-06T17:21:59.133Z,25.63
2023-03-06T17:24:26.775Z,25.02
2023-03-06T17:26:53.974Z,25.91
2023-03-06T17:29:21.193Z,25.92
2023-03-06T17:31:48.314Z,25.97
2023-03-06T17:34:16.956Z,25.57
2023-03-06T17:36:44.216Z,25.94
2023-03-06T17:39:11.330Z,25.80
2023-03-06T17:41:38.788Z,25.99
2023-03-06T17:44:06.116Z,26.39
2023-03-06T17:46:33.300Z,25.71
2023-03-06T17:49:01.134Z,25.85
2023-03-06T17:51:29.814Z,26.00
2023-03-06T17:53:57.209Z,26.67
2023-03-06T17:56:24.407Z,27.03
2023-03-06T17:58:51.516Z,27.58
2023-03-06T18:01:21.702Z,27.57
2023-03-06T18:03:50.764Z,28.00
2023-03-06T18:06:18.952Z,28.63
2023-03-06T18:08:47.805Z,28.33
2023-03-06T18:11:17.004Z,28.71
2023-03-06T18:13:45.906Z,28.63
2023-03-06T18:16:15.599Z,28.29
2023-03-06T18:18:42.917Z,28.01
2023-03-06T18:21:12.825Z,28.78
2023-03-06T18:23:41.404Z,26.81
2023-03-06T18:26:13.046Z,27.83
2023-03-06T18:28:40.964Z,27.88
2023-03-06T18:31:15.683Z,27.70
2023-03-06T18:33:42.989Z,28.26
2023-03-06T18:36:14.467Z,26.34
2023-03-06T18:38:42.288Z,26.86
2023-03-06T18:41:12.733Z,27.38
2023-03-06T18:43:40.388Z,27.40
2023-03-06T18:46:08.345Z,28.16
2023-03-06T18:48:36.048Z,28.27
2023-03-06T18:51:08.327Z,28.69
2023-03-06T18:53:36.369Z,28.11
2023-03-06T18:56:04.565Z,28.15
2023-03-06T18:58:33.785Z,28.61
2023-03-06T19:01:06.903Z,28.81
2023-03-06T19:03:35.072Z,37.12
2023-03-06T19:06:10.613Z,30.41
2023-03-06T19:08:39.862Z,28.29
2023-03-06T19:11:09.101Z,23.63
2023-03-06T19:13:39.718Z,24.77
2023-03-06T19:16:08.198Z,24.84
2023-03-06T19:18:36.019Z,25.51
2023-03-06T19:21:11.563Z,25.97
2023-03-06T19:23:38.836Z,26.72
2023-03-06T19:26:06.879Z,27.97
2023-03-06T19:28:34.881Z,28.06
2023-03-06T19:31:10.372Z,27.43
2023-03-06T19:33:37.668Z,28.38
2023-03-06T19:36:06.293Z,27.90
2023-03-06T19:38:33.953Z,27.47
2023-03-06T19:41:01.193Z,28.16
2023-03-06T19:43:29.784Z,28.09
2023-03-06T19:45:57.588Z,28.63
2023-03-06T19:48:26.330Z,28.40
2023-03-06T19:50:53.610Z,28.69
2023-03-06T19:53:20.851Z,29.09
2023-03-06T19:55:48.057Z,29.09
2023-03-06T19:58:15.336Z,28.63
2023-03-06T20:00:42.514Z,29.74
2023-03-06T20:03:09.618Z,29.87
2023-03-06T20:05:46.201Z,30.14
2023-03-06T20:08:13.870Z,29.59
2023-03-06T20:10:41.030Z,30.05
2023-03-06T20:13:08.210Z,29.88
2023-03-06T20:15:35.428Z,30.49
2023-03-06T20:18:02.613Z,29.96
2023-03-06T20:20:29.763Z,30.17
2023-03-06T20:22:58.343Z,29.69
2023-03-06T20:25:25.593Z,30.52
2023-03-06T20:27:52.713Z,30.19
2023-03-06T20:30:19.919Z,30.11
2023-03-06T20:32:47.691Z,29.94
2023-03-06T20:35:15.093Z,30.21
2023-03-06T20:37:42.134Z,30.75
2023-03-06T20:40:13.217Z,30.57
2023-03-06T20:42:40.450Z,30.68
2023-03-06T20:45:09.016Z,30.71
2023-03-06T20:47:36.192Z,30.97
2023-03-06T20:50:03.594Z,30.65
2023-03-06T20:52:30.842Z,30.34
2023-03-06T20:54:58.160Z,30.52
2023-03-06T20:57:26.699Z,31.46
2023-03-06T20:59:53.815Z,31.27
2023-03-06T21:02:21.111Z,31.01
2023-03-06T21:04:49.143Z,31.15
2023-03-06T21:07:16.374Z,30.79
2023-03-06T21:09:43.564Z,31.01
2023-03-06T21:12:11.414Z,31.34
2023-03-06T21:14:40.074Z,31.07
2023-03-06T21:17:07.236Z,31.42
2023-03-06T21:19:34.716Z,31.31
2023-03-06T21:22:02.138Z,31.47
2023-03-06T21:24:29.358Z,32.09
2023-03-06T21:26:56.717Z,31.86
2023-03-06T21:29:24.198Z,31.86
2023-03-06T21:31:52.974Z,31.76
2023-03-06T21:34:20.228Z,32.21
2023-03-06T21:36:47.528Z,32.51
2023-03-06T21:39:14.840Z,32.44
2023-03-06T21:41:41.980Z,32.34
2023-03-06T21:44:09.120Z,32.50
2023-03-06T21:46:36.301Z,32.33
2023-03-06T21:49:06.014Z,33.05
2023-03-06T21:51:34.099Z,33.00
2023-03-06T21:54:02.086Z,32.90
2023-03-06T21:56:29.620Z,33.38
2023-03-06T21:58:57.199Z,33.04
2023-03-06T22:01:26.860Z,33.13
2023-03-06T22:03:55.186Z,32.68
2023-03-06T22:06:25.599Z,33.10
2023-03-06T22:08:54.646Z,32.78
2023-03-06T22:11:24.126Z,32.80
2023-03-06T22:13:52.200Z,32.75
2023-03-06T22:16:20.079Z,32.87
2023-03-06T22:18:49.042Z,33.50
2023-03-06T22:21:19.521Z,33.16
2023-03-06T22:23:51.239Z,33.97
2023-03-06T22:26:18.725Z,33.48
2023-03-06T22:28:46.349Z,34.14
2023-03-06T22:31:15.822Z,33.94
2023-03-06T22:33:43.060Z,33.68
2023-03-06T22:36:12.701Z,34.25
2023-03-06T22:38:42.451Z,34.19
2023-03-06T22:41:12.715Z,34.68
2023-03-06T22:43:39.893Z,34.69
2023-03-06T22:46:09.676Z,34.77
2023-03-06T22:48:37.316Z,34.83
2023-03-06T22:51:06.004Z,34.43
2023-03-06T22:53:34.101Z,35.08
2023-03-06T22:56:03.011Z,34.66
2023-03-06T22:58:34.068Z,34.88
2023-03-06T23:01:05.463Z,35.58
2023-03-06T23:03:32.535Z,35.31
2023-03-06T23:05:59.613Z,35.60
2023-03-06T23:08:26.819Z,35.39
2023-03-06T23:10:53.994Z,35.48
2023-03-06T23:13:21.105Z,35.47
2023-03-06T23:15:49.672Z,35.65
2023-03-06T23:18:16.875Z,34.97
2023-03-06T23:20:45.020Z,35.72
2023-03-06T23:23:12.481Z,35.72
2023-03-06T23:25:39.577Z,35.36
2023-03-06T23:28:06.777Z,34.99
2023-03-06T23:30:33.949Z,34.99
2023-03-06T23:33:02.638Z,35.18
2023-03-06T23:35:29.776Z,35.02
2023-03-06T23:37:57.924Z,34.57
2023-03-06T23:40:25.008Z,34.28
2023-03-06T23:42:52.079Z,34.29
2023-03-06T23:45:19.335Z,34.12
2023-03-06T23:47:46.497Z,34.41
2023-03-06T23:50:15.560Z,34.34
2023-03-06T23:52:42.879Z,34.66
2023-03-06T23:55:10.715Z,34.30
2023-03-06T23:57:38.088Z,34.39
